tititudorancea.com
Station Historical Data
Daily Summary for November 8, 2018 Units:  English    Metric   Both
« Previous Day
Next Day »
Daily Weekly Monthly Yearly Custom
  High: Low: Average:
Temperature: TemperatureF °F 34.6 °F 44.8 °F
Dew Point: DewpointF °F 32.5 °F 37 °F
Humidity: Humidity % 43 % 76 %
Wind Speed: WindSpeedMPH mph 0.0 mph 3.1 mph
Wind Gust: WindSpeedGustMPH mph - -
Wind:- - WSW
Pressure: PressureIn in 30.02 in -
Precipitation: 0.00 in    
Historical Graphs
 
 
Ararat weather Find more about Weather in Ararat, AU


 



 


Tabular Data for November 8, 2018
Time Temperature Dew Point Pressure Wind Wind Speed Wind Gust Humidity Rainfall Rate (Hourly)
TemperatureF °F DewpointF °F PressureIn in Calm     Humidity % HourlyPrecipIn in
00:04 44.1 °F 37.3 °F 30.02 in WSW 10.4 mph 6.5 mph 77 % 0.00 in
00:09 44.1 °F 37.0 °F 30.02 in WSW 6.9 mph 6.0 mph 76 % 0.00 in
00:14 44.1 °F 36.7 °F 30.02 in WSW 8.1 mph 6.5 mph 75 % 0.00 in
00:19 44.2 °F 36.4 °F 30.03 in SW 11.5 mph 6.1 mph 74 % 0.00 in
00:24 44.8 °F 36.3 °F 30.03 in SW 13.8 mph 7.0 mph 72 % 0.00 in
00:29 44.9 °F 36.4 °F 30.03 in SW 11.5 mph 7.8 mph 72 % 0.00 in
00:34 44.7 °F 36.2 °F 30.03 in SW 9.2 mph 5.0 mph 72 % 0.00 in
00:39 44.4 °F 36.3 °F 30.03 in SW 5.0 mph 3.6 mph 73 % 0.00 in
00:44 44.0 °F 36.2 °F 30.03 in SW 5.8 mph 4.1 mph 74 % 0.00 in
00:49 43.6 °F 36.2 °F 30.03 in North 5.0 mph 3.5 mph 75 % 0.00 in
00:54 43.3 °F 36.2 °F 30.04 in SW 4.6 mph 3.7 mph 76 % 0.00 in
00:59 43.0 °F 36.0 °F 30.04 in North 1.2 mph 0.3 mph 76 % 0.00 in
01:04 42.8 °F 36.1 °F 30.04 in SW 2.3 mph 0.7 mph 77 % 0.00 in
01:09 42.5 °F 36.1 °F 30.04 in SW 5.0 mph 3.2 mph 78 % 0.00 in
01:14 42.2 °F 35.8 °F 30.04 in SW 4.6 mph 2.5 mph 78 % 0.00 in
01:19 42.0 °F 36.0 °F 30.04 in SW 5.8 mph 4.0 mph 79 % 0.00 in
01:24 41.9 °F 35.9 °F 30.03 in SW 4.0 mph 2.1 mph 79 % 0.00 in
01:29 41.8 °F 36.1 °F 30.04 in SW 3.0 mph 1.4 mph 80 % 0.00 in
01:34 41.7 °F 36.0 °F 30.04 in SW 3.5 mph 1.1 mph 80 % 0.00 in
01:39 41.6 °F 36.2 °F 30.03 in SW 3.5 mph 2.8 mph 81 % 0.00 in
01:44 41.5 °F 36.1 °F 30.03 in SW 4.6 mph 2.5 mph 81 % 0.00 in
01:49 41.4 °F 36.0 °F 30.03 in SW 3.5 mph 2.4 mph 81 % 0.00 in
01:54 41.3 °F 36.2 °F 30.03 in SW 3.5 mph 2.4 mph 82 % 0.00 in
01:59 41.2 °F 36.1 °F 30.03 in SW 3.5 mph 2.7 mph 82 % 0.00 in
02:04 41.0 °F 35.9 °F 30.03 in SW 3.5 mph 2.0 mph 82 % 0.00 in
02:05 44.1 °F 37.3 °F 30.02 in WSW 6.0 mph 12.0 mph 77 % 0.00 in
02:09 41.0 °F 36.2 °F 30.03 in SW 2.3 mph 0.1 mph 83 % 0.00 in
02:10 44.1 °F 37.3 °F 30.02 in WSW 7.0 mph 10.0 mph 77 % 0.00 in
02:14 40.8 °F 36.0 °F 30.03 in North 1.2 mph   83 % 0.00 in
02:15 44.1 °F 37.0 °F 30.02 in WSW 3.0 mph 8.0 mph 76 % 0.00 in
02:19 40.6 °F 35.5 °F 30.03 in Calm     82 % 0.00 in
02:20 44.1 °F 36.3 °F 30.02 in WSW 5.0 mph 11.0 mph 74 % 0.00 in
02:24 40.3 °F 35.5 °F 30.03 in Calm     83 % 0.00 in
02:25 44.3 °F 36.2 °F 30.03 in SW 10.0 mph 13.0 mph 73 % 0.00 in
02:29 39.9 °F 35.2 °F 30.03 in SW 2.3 mph 0.3 mph 83 % 0.00 in
02:30 44.8 °F 36.3 °F 30.03 in SW 10.0 mph 16.0 mph 72 % 0.00 in
02:34 39.6 °F 35.2 °F 30.03 in Calm     84 % 0.00 in
02:35 44.9 °F 36.4 °F 30.03 in SW 3.0 mph 12.0 mph 72 % 0.00 in
02:39 39.2 °F 34.8 °F 30.03 in Calm     84 % 0.00 in
02:40 44.6 °F 36.5 °F 30.03 in SW 6.0 mph 11.0 mph 73 % 0.00 in
02:44 38.9 °F 34.8 °F 30.03 in Calm     85 % 0.00 in
02:45 44.2 °F 36.1 °F 30.03 in SW 3.0 mph 9.0 mph 73 % 0.00 in
02:49 38.6 °F 34.5 °F 30.03 in Calm     85 % 0.00 in
02:50 43.8 °F 36.0 °F 30.03 in SW 3.0 mph 6.0 mph 74 % 0.00 in
02:54 38.2 °F 34.1 °F 30.03 in Calm     85 % 0.00 in
02:55 43.5 °F 36.1 °F 30.04 in SW 3.0 mph 6.0 mph 75 % 0.00 in
02:59 37.9 °F 34.1 °F 30.03 in Calm     86 % 0.00 in
03:00 43.2 °F 36.1 °F 30.04 in SW 3.0 mph 5.0 mph 76 % 0.00 in
03:04 37.8 °F 34.0 °F 30.03 in Calm     86 % 0.00 in
03:05 43.0 °F 36.0 °F 30.04 in Calm   2.0 mph 76 % 0.00 in
03:09 37.6 °F 33.8 °F 30.03 in Calm     86 % 0.00 in
03:10 42.7 °F 36.0 °F 30.04 in SW 2.0 mph 4.0 mph 77 % 0.00 in
03:14 37.3 °F 33.8 °F 30.04 in Calm     87 % 0.00 in
03:15 42.4 °F 36.0 °F 30.04 in SW 3.0 mph 6.0 mph 78 % 0.00 in
03:19 37.1 °F 33.6 °F 30.04 in Calm     87 % 0.00 in
03:20 42.1 °F 35.7 °F 30.04 in SW 3.0 mph 5.0 mph 78 % 0.00 in
03:24 36.9 °F 33.7 °F 30.04 in Calm     88 % 0.00 in
03:25 42.1 °F 36.1 °F 30.04 in SW 3.0 mph 6.0 mph 79 % 0.00 in
03:29 36.9 °F 33.7 °F 30.04 in Calm     88 % 0.00 in
03:30 41.9 °F 36.2 °F 30.04 in SW 3.0 mph 4.0 mph 80 % 0.00 in
03:34 36.8 °F 33.6 °F 30.04 in Calm     88 % 0.00 in
03:35 41.7 °F 36.0 °F 30.04 in SW 2.0 mph 4.0 mph 80 % 0.00 in
03:39 36.7 °F 33.8 °F 30.04 in Calm     89 % 0.00 in
03:40 41.6 °F 35.9 °F 30.04 in SW 2.0 mph 3.0 mph 80 % 0.00 in
03:44 36.8 °F 33.9 °F 30.04 in Calm     89 % 0.00 in
03:45 41.6 °F 36.2 °F 30.03 in SW 3.0 mph 4.0 mph 81 % 0.00 in
03:49 37.2 °F 34.5 °F 30.04 in Calm     90 % 0.00 in
03:50 41.5 °F 36.1 °F 30.03 in SW 3.0 mph 7.0 mph 81 % 0.00 in
03:54 37.3 °F 34.6 °F 30.04 in SW 2.3 mph 1.0 mph 90 % 0.00 in
03:55 41.4 °F 36.0 °F 30.03 in SW 2.0 mph 4.0 mph 81 % 0.00 in
03:59 37.4 °F 34.7 °F 30.04 in Calm   0.3 mph 90 % 0.00 in
04:00 41.3 °F 36.2 °F 30.03 in SW 3.0 mph 4.0 mph 82 % 0.00 in
04:04 37.4 °F 34.7 °F 30.04 in SW 2.3 mph 0.3 mph 90 % 0.00 in
04:05 41.1 °F 36.0 °F 30.03 in SW 2.0 mph 4.0 mph 82 % 0.00 in
04:09 37.3 °F 34.4 °F 30.04 in North 2.0 mph 0.6 mph 89 % 0.00 in
04:10 41.0 °F 36.2 °F 30.03 in SW 1.0 mph 4.0 mph 83 % 0.00 in
04:14 37.2 °F 34.3 °F 30.04 in Calm     89 % 0.00 in
04:15 40.9 °F 36.1 °F 30.03 in Calm   2.0 mph 83 % 0.00 in
04:19 37.0 °F 34.3 °F 30.04 in Calm     90 % 0.00 in
04:20 40.8 °F 36.0 °F 30.03 in Calm   1.0 mph 83 % 0.00 in
04:24 36.8 °F 34.1 °F 30.04 in Calm     90 % 0.00 in
04:25 40.5 °F 35.4 °F 30.03 in Calm     82 % 0.00 in
04:29 36.7 °F 34.0 °F 30.04 in SW 2.3 mph 1.3 mph 90 % 0.00 in
04:30 40.1 °F 35.4 °F 30.03 in Calm     83 % 0.00 in
04:34 36.7 °F 34.0 °F 30.03 in SW 1.2 mph 0.9 mph 90 % 0.00 in
04:39 36.7 °F 34.0 °F 30.04 in Calm     90 % 0.00 in
04:40 39.5 °F 35.1 °F 30.03 in Calm     84 % 0.00 in
04:44 36.3 °F 33.6 °F 30.04 in Calm     90 % 0.00 in
04:45 39.1 °F 34.7 °F 30.03 in Calm     84 % 0.00 in
04:49 36.2 °F 33.5 °F 30.04 in Calm     90 % 0.00 in
04:50 38.8 °F 34.4 °F 30.03 in Calm     84 % 0.00 in
04:54 36.1 °F 33.7 °F 30.04 in SW 2.3 mph 0.6 mph 91 % 0.00 in
04:55 38.4 °F 34.3 °F 30.03 in Calm     85 % 0.00 in
04:59 36.1 °F 33.7 °F 30.04 in Calm     91 % 0.00 in
05:00 38.1 °F 34.3 °F 30.03 in Calm     86 % 0.00 in
05:04 36.2 °F 33.8 °F 30.05 in SSW 2.3 mph   91 % 0.00 in
05:05 37.9 °F 34.1 °F 30.03 in Calm     86 % 0.00 in
05:09 36.3 °F 33.9 °F 30.05 in Calm     91 % 0.00 in
05:10 37.7 °F 33.9 °F 30.03 in Calm     86 % 0.00 in
05:14 36.1 °F 33.7 °F 30.05 in Calm     91 % 0.00 in
05:15 37.4 °F 33.9 °F 30.03 in Calm     87 % 0.00 in
05:19 35.9 °F 33.5 °F 30.05 in Calm     91 % 0.00 in
05:20 37.2 °F 33.7 °F 30.04 in Calm     87 % 0.00 in
05:24 35.8 °F 33.4 °F 30.05 in Calm     91 % 0.00 in
05:25 37.0 °F 33.5 °F 30.04 in Calm     87 % 0.00 in
05:29 35.7 °F 33.3 °F 30.05 in Calm     91 % 0.00 in
05:30 36.9 °F 33.7 °F 30.04 in Calm     88 % 0.00 in
05:34 35.5 °F 33.1 °F 30.05 in Calm     91 % 0.00 in
05:35 36.9 °F 33.7 °F 30.04 in Calm   1.0 mph 88 % 0.00 in
05:39 35.3 °F 32.9 °F 30.06 in Calm     91 % 0.00 in
05:40 36.8 °F 33.6 °F 30.04 in SW 1.0 mph 3.0 mph 88 % 0.00 in
05:44 35.3 °F 32.9 °F 30.06 in Calm     91 % 0.00 in
05:45 36.7 °F 33.8 °F 30.04 in Calm   1.0 mph 89 % 0.00 in
05:49 35.4 °F 33.3 °F 30.06 in Calm     92 % 0.00 in
05:50 36.9 °F 34.2 °F 30.04 in Calm     90 % 0.00 in
05:54 35.4 °F 33.3 °F 30.06 in Calm     92 % 0.00 in
05:55 37.2 °F 34.5 °F 30.04 in Calm     90 % 0.00 in
05:59 35.2 °F 32.8 °F 30.06 in Calm     91 % 0.00 in
06:00 37.4 °F 34.7 °F 30.04 in Calm   2.0 mph 90 % 0.00 in
06:04 35.1 °F 33.0 °F 30.06 in Calm     92 % 0.00 in
06:05 37.4 °F 34.7 °F 30.04 in SW 1.0 mph 2.0 mph 90 % 0.00 in
06:09 35.0 °F 32.9 °F 30.07 in Calm     92 % 0.00 in
06:10 37.4 °F 34.5 °F 30.04 in Calm   2.0 mph 89 % 0.00 in
06:14 34.9 °F 32.8 °F 30.07 in Calm     92 % 0.00 in
06:15 37.2 °F 34.3 °F 30.04 in Calm   2.0 mph 89 % 0.00 in
06:19 34.8 °F 32.7 °F 30.07 in Calm     92 % 0.00 in
06:20 37.1 °F 34.4 °F 30.04 in Calm     90 % 0.00 in
06:24 34.7 °F 32.6 °F 30.07 in Calm     92 % 0.00 in
06:25 36.9 °F 34.2 °F 30.04 in Calm     90 % 0.00 in
06:29 34.6 °F 32.5 °F 30.07 in Calm     92 % 0.00 in
06:30 36.7 °F 34.0 °F 30.04 in Calm     90 % 0.00 in
06:34 34.6 °F 32.5 °F 30.08 in Calm     92 % 0.00 in
06:35 36.7 °F 34.0 °F 30.04 in Calm   2.0 mph 90 % 0.00 in
06:39 34.7 °F 32.6 °F 30.08 in Calm     92 % 0.00 in
06:40 36.8 °F 34.4 °F 30.03 in SW 2.0 mph 3.0 mph 91 % 0.00 in
06:44 34.8 °F 32.7 °F 30.08 in Calm     92 % 0.00 in
06:45 36.6 °F 33.9 °F 30.04 in SW 1.0 mph 2.0 mph 90 % 0.00 in
06:49 34.9 °F 32.8 °F 30.08 in Calm     92 % 0.00 in
06:54 35.0 °F 33.2 °F 30.08 in Calm     93 % 0.00 in
06:59 35.3 °F 33.5 °F 30.09 in Calm     93 % 0.00 in
07:00 36.1 °F 33.5 °F 30.04 in Calm   2.0 mph 90 % 0.00 in
07:04 35.8 °F 34.0 °F 30.09 in Calm     93 % 0.00 in
07:05 36.1 °F 33.7 °F 30.04 in SW 1.0 mph 2.0 mph 91 % 0.00 in
07:09 36.3 °F 34.5 °F 30.09 in Calm     93 % 0.00 in
07:10 36.2 °F 33.8 °F 30.05 in Calm   2.0 mph 91 % 0.00 in
07:14 36.7 °F 34.9 °F 30.09 in Calm     93 % 0.00 in
07:15 36.3 °F 33.9 °F 30.05 in Calm     91 % 0.00 in
07:19 37.3 °F 35.7 °F 30.09 in Calm     94 % 0.00 in
07:20 36.0 °F 33.6 °F 30.05 in Calm     91 % 0.00 in
07:24 37.8 °F 36.2 °F 30.10 in Calm     94 % 0.00 in
07:25 35.9 °F 33.5 °F 30.05 in Calm     91 % 0.00 in
07:29 38.2 °F 36.6 °F 30.10 in Calm     94 % 0.00 in
07:30 35.8 °F 33.4 °F 30.05 in Calm     91 % 0.00 in
07:34 38.7 °F 37.1 °F 30.10 in Calm     94 % 0.00 in
07:35 35.6 °F 33.2 °F 30.05 in Calm     91 % 0.00 in
07:39 40.3 °F 39.0 °F 30.10 in Calm     95 % 0.00 in
07:40 35.4 °F 33.0 °F 30.05 in Calm     91 % 0.00 in
07:44 41.5 °F 40.2 °F 30.10 in Calm     95 % 0.00 in
07:45 35.3 °F 32.9 °F 30.06 in Calm     91 % 0.00 in
07:49 42.4 °F 41.1 °F 30.10 in SW 2.3 mph 2.0 mph 95 % 0.00 in
07:50 35.3 °F 33.2 °F 30.06 in Calm     92 % 0.00 in
07:54 43.4 °F 41.8 °F 30.10 in SW 2.3 mph 1.0 mph 94 % 0.00 in
07:55 35.4 °F 33.3 °F 30.06 in Calm     92 % 0.00 in
07:59 44.6 °F 43.0 °F 30.11 in SW 1.2 mph 0.2 mph 94 % 0.00 in
08:00 35.3 °F 32.9 °F 30.06 in Calm     91 % 0.00 in
08:04 45.3 °F 43.1 °F 30.11 in SW 3.5 mph 1.1 mph 92 % 0.00 in
08:05 35.1 °F 32.7 °F 30.06 in Calm     91 % 0.00 in
08:09 45.9 °F 43.4 °F 30.11 in SW 6.0 mph 5.3 mph 91 % 0.00 in
08:10 35.1 °F 33.0 °F 30.06 in Calm     92 % 0.00 in
08:14 46.4 °F 43.0 °F 30.11 in SW 8.0 mph 4.7 mph 88 % 0.00 in
08:15 34.9 °F 32.8 °F 30.07 in Calm     92 % 0.00 in
08:19 47.0 °F 41.8 °F 30.11 in SW 6.9 mph 3.8 mph 82 % 0.00 in
08:20 34.9 °F 32.8 °F 30.07 in Calm     92 % 0.00 in
08:24 47.7 °F 41.8 °F 30.11 in SW 6.0 mph 5.6 mph 80 % 0.00 in
08:25 34.8 °F 32.7 °F 30.07 in Calm   1.0 mph 92 % 0.00 in
08:29 48.4 °F 41.9 °F 30.11 in SW 6.0 mph 5.4 mph 78 % 0.00 in
08:30 34.6 °F 32.5 °F 30.07 in Calm     92 % 0.00 in
08:34 48.6 °F 40.7 °F 30.11 in WSW 9.2 mph 3.5 mph 74 % 0.00 in
08:35 34.6 °F 32.5 °F 30.08 in Calm     92 % 0.00 in
08:39 49.0 °F 40.7 °F 30.12 in WSW 6.9 mph 4.3 mph 73 % 0.00 in
08:40 34.6 °F 32.5 °F 30.08 in Calm     92 % 0.00 in
08:42 49.2 °F 40.9 °F 30.12 in WSW 9.2 mph 6.2 mph 73 % 0.00 in
08:45 34.8 °F 33.0 °F 30.08 in Calm     93 % 0.00 in
08:50 34.9 °F 32.8 °F 30.08 in Calm     92 % 0.00 in
08:55 34.9 °F 33.1 °F 30.08 in Calm     93 % 0.00 in
09:00 35.1 °F 33.3 °F 30.08 in Calm     93 % 0.00 in
09:05 35.5 °F 33.7 °F 30.09 in Calm     93 % 0.00 in
09:10 36.0 °F 34.4 °F 30.09 in Calm     94 % 0.00 in
09:15 36.4 °F 34.8 °F 30.09 in Calm     94 % 0.00 in
09:20 36.9 °F 35.3 °F 30.09 in Calm     94 % 0.00 in
09:25 37.5 °F 35.9 °F 30.09 in Calm     94 % 0.00 in
09:30 37.9 °F 36.3 °F 30.10 in Calm     94 % 0.00 in
09:35 38.4 °F 36.8 °F 30.10 in Calm     94 % 0.00 in
09:45 40.7 °F 39.4 °F 30.10 in Calm     95 % 0.00 in
09:50 41.9 °F 40.6 °F 30.10 in SW 1.0 mph 2.0 mph 95 % 0.00 in
09:55 42.7 °F 41.1 °F 30.11 in Calm   3.0 mph 94 % 0.00 in
10:00 43.9 °F 42.3 °F 30.10 in SW 1.0 mph 2.0 mph 94 % 0.00 in
10:05 45.0 °F 43.1 °F 30.11 in Calm   2.0 mph 93 % 0.00 in
10:10 45.5 °F 43.3 °F 30.11 in SW 1.0 mph 3.0 mph 92 % 0.00 in
10:15 46.0 °F 43.2 °F 30.11 in SW 2.0 mph 7.0 mph 90 % 0.00 in
10:20 46.6 °F 42.3 °F 30.11 in SW 7.0 mph 11.0 mph 85 % 0.00 in
10:25 47.3 °F 42.1 °F 30.11 in SW 3.0 mph 8.0 mph 82 % 0.00 in
10:30 47.9 °F 41.7 °F 30.11 in SW 3.0 mph 8.0 mph 79 % 0.00 in
10:35 48.5 °F 41.3 °F 30.11 in SW 8.0 mph 11.0 mph 76 % 0.00 in
10:40 48.7 °F 40.8 °F 30.11 in SW 3.0 mph 12.0 mph 74 % 0.00 in
10:45 49.1 °F 40.8 °F 30.12 in WSW 6.0 mph 8.0 mph 73 % 0.00 in
10:50 49.2 °F 39.8 °F 30.12 in SW 9.0 mph 13.0 mph 70 % 0.00 in
10:55 49.3 °F 39.9 °F 30.12 in SW 9.0 mph 13.0 mph 70 % 0.00 in
11:00 49.4 °F 40.0 °F 30.12 in WSW 9.0 mph 12.0 mph 70 % 0.00 in
11:05 50.1 °F 40.3 °F 30.12 in WSW 5.0 mph 9.0 mph 69 % 0.00 in
11:10 50.5 °F 39.9 °F 30.12 in SW 7.0 mph 11.0 mph 67 % 0.00 in
11:15 50.5 °F 39.9 °F 30.12 in SW 5.0 mph 11.0 mph 67 % 0.00 in
11:20 50.5 °F 39.6 °F 30.12 in SW 5.0 mph 10.0 mph 66 % 0.00 in
11:25 50.9 °F 39.9 °F 30.12 in SW 7.0 mph 12.0 mph 66 % 0.00 in
11:30 50.9 °F 40.3 °F 30.12 in WSW 5.0 mph 11.0 mph 67 % 0.00 in
11:35 51.2 °F 39.4 °F 30.12 in WSW 7.0 mph 10.0 mph 64 % 0.00 in
11:40 51.4 °F 40.0 °F 30.12 in West 8.0 mph 11.0 mph 65 % 0.00 in
11:45 51.4 °F 40.0 °F 30.13 in West 6.0 mph 11.0 mph 65 % 0.00 in
11:50 50.6 °F 39.7 °F 30.13 in West 8.0 mph 9.0 mph 66 % 0.00 in
11:55 51.1 °F 40.5 °F 30.12 in West 6.0 mph 9.0 mph 67 % 0.00 in
12:00 51.1 °F 38.5 °F 30.13 in West 3.0 mph 14.0 mph 62 % 0.00 in
12:05 51.6 °F 39.8 °F 30.13 in West 12.0 mph 16.0 mph 64 % 0.00 in
12:10 52.1 °F 39.9 °F 30.13 in SW 9.0 mph 11.0 mph 63 % 0.00 in
12:15 51.8 °F 39.6 °F 30.13 in SW 6.0 mph 12.0 mph 63 % 0.00 in
12:20 52.5 °F 39.4 °F 30.13 in WSW 7.0 mph 15.0 mph 61 % 0.00 in
12:30 52.0 °F 39.0 °F 30.14 in WSW 9.0 mph 13.0 mph 61 % 0.00 in
12:35 51.6 °F 39.4 °F 30.14 in West 6.0 mph 11.0 mph 63 % 0.00 in
12:40 51.9 °F 38.4 °F 30.14 in West 6.0 mph 8.0 mph 60 % 0.00 in
12:45 52.9 °F 39.4 °F 30.13 in WSW 8.0 mph 14.0 mph 60 % 0.00 in
12:50 53.4 °F 39.4 °F 30.13 in SW 8.0 mph 15.0 mph 59 % 0.00 in
12:55 52.7 °F 38.3 °F 30.13 in WSW 9.0 mph 12.0 mph 58 % 0.00 in
13:00 53.1 °F 38.3 °F 30.13 in WSW 5.0 mph 11.0 mph 57 % 0.00 in
13:05 53.5 °F 38.2 °F 30.14 in SW 8.0 mph 13.0 mph 56 % 0.00 in
13:10 52.9 °F 39.0 °F 30.14 in WSW 8.0 mph 13.0 mph 59 % 0.00 in
13:15 52.7 °F 38.3 °F 30.14 in WSW 3.0 mph 8.0 mph 58 % 0.00 in
13:20 53.8 °F 38.9 °F 30.14 in WSW 6.0 mph 10.0 mph 57 % 0.00 in
13:25 53.9 °F 39.0 °F 30.15 in WSW 7.0 mph 13.0 mph 57 % 0.00 in
13:30 53.8 °F 38.5 °F 30.15 in WSW 7.0 mph 13.0 mph 56 % 0.00 in
13:35 53.7 °F 38.4 °F 30.15 in WSW 5.0 mph 10.0 mph 56 % 0.00 in
13:40 53.7 °F 37.0 °F 30.14 in WSW 5.0 mph 11.0 mph 53 % 0.00 in
13:45 54.3 °F 37.5 °F 30.14 in WSW 3.0 mph 8.0 mph 53 % 0.00 in
13:50 55.1 °F 38.3 °F 30.14 in West 6.0 mph 9.0 mph 53 % 0.00 in
13:55 54.9 °F 38.1 °F 30.14 in WSW 7.0 mph 13.0 mph 53 % 0.00 in
14:00 54.7 °F 37.9 °F 30.14 in SW 7.0 mph 10.0 mph 53 % 0.00 in
14:05 54.6 °F 38.3 °F 30.14 in SW 7.0 mph 9.0 mph 54 % 0.00 in
14:10 55.4 °F 38.1 °F 30.14 in WSW 9.0 mph 15.0 mph 52 % 0.00 in
14:15 55.2 °F 37.4 °F 30.14 in West 3.0 mph 10.0 mph 51 % 0.00 in
14:20 55.8 °F 38.4 °F 30.13 in WSW 3.0 mph 7.0 mph 52 % 0.00 in
14:25 56.9 °F 38.4 °F 30.13 in WSW 9.0 mph 12.0 mph 50 % 0.00 in
14:30 55.8 °F 36.9 °F 30.13 in WSW 3.0 mph 12.0 mph 49 % 0.00 in
14:35 55.6 °F 37.7 °F 30.13 in SW 3.0 mph 10.0 mph 51 % 0.00 in
14:40 57.3 °F 37.2 °F 30.12 in SW 3.0 mph 8.0 mph 47 % 0.00 in
14:45 57.9 °F 36.7 °F 30.12 in WSW 10.0 mph 13.0 mph 45 % 0.00 in
14:50 56.4 °F 35.9 °F 30.12 in WSW 8.0 mph 11.0 mph 46 % 0.00 in
14:55 56.6 °F 37.6 °F 30.12 in SW 7.0 mph 11.0 mph 49 % 0.00 in
15:00 56.3 °F 35.8 °F 30.12 in SSW 7.0 mph 13.0 mph 46 % 0.00 in
15:05 56.4 °F 36.9 °F 30.12 in WSW 7.0 mph 12.0 mph 48 % 0.00 in
15:10 56.3 °F 36.3 °F 30.12 in West 7.0 mph 9.0 mph 47 % 0.00 in
15:15 56.4 °F 36.9 °F 30.12 in WSW 5.0 mph 10.0 mph 48 % 0.00 in
15:20 57.4 °F 37.9 °F 30.11 in SW 6.0 mph 9.0 mph 48 % 0.00 in
15:25 57.2 °F 37.7 °F 30.11 in SW 7.0 mph 13.0 mph 48 % 0.00 in
15:30 56.6 °F 37.6 °F 30.11 in SW 9.0 mph 12.0 mph 49 % 0.00 in
15:35 56.9 °F 37.4 °F 30.11 in SSW 6.0 mph 13.0 mph 48 % 0.00 in
15:40 56.7 °F 36.1 °F 30.11 in South 3.0 mph 7.0 mph 46 % 0.00 in
15:45 57.3 °F 37.8 °F 30.11 in SSW 5.0 mph 9.0 mph 48 % 0.00 in
15:50 58.6 °F 36.2 °F 30.11 in WNW 8.0 mph 13.0 mph 43 % 0.00 in
16:00 58.3 °F 37.0 °F 30.11 in West 3.0 mph 8.0 mph 45 % 0.00 in
16:05 57.9 °F 36.7 °F 30.11 in WSW 5.0 mph 12.0 mph 45 % 0.00 in
16:10 58.3 °F 38.7 °F 30.11 in WSW 10.0 mph 13.0 mph 48 % 0.00 in
16:15 58.0 °F 37.3 °F 30.11 in West 3.0 mph 11.0 mph 46 % 0.00 in
16:20 57.8 °F 37.7 °F 30.11 in WNW 7.0 mph 12.0 mph 47 % 0.00 in
16:25 57.8 °F 38.8 °F 30.10 in West 3.0 mph 11.0 mph 49 % 0.00 in
16:30 58.7 °F 39.6 °F 30.10 in West 8.0 mph 12.0 mph 49 % 0.00 in
16:35 58.3 °F 37.6 °F 30.10 in SW 7.0 mph 13.0 mph 46 % 0.00 in
16:40 58.6 °F 37.9 °F 30.10 in SSW 5.0 mph 11.0 mph 46 % 0.00 in
16:45 58.9 °F 38.7 °F 30.10 in SSW 7.0 mph 9.0 mph 47 % 0.00 in
16:50 59.7 °F 38.3 °F 30.10 in WSW 6.0 mph 13.0 mph 45 % 0.00 in
16:55 60.2 °F 37.6 °F 30.10 in West 8.0 mph 14.0 mph 43 % 0.00 in
17:00 59.4 °F 38.0 °F 30.10 in WSW 5.0 mph 14.0 mph 45 % 0.00 in
17:05 58.9 °F 38.1 °F 30.10 in WSW 8.0 mph 16.0 mph 46 % 0.00 in
17:10 58.8 °F 38.1 °F 30.09 in SW 3.0 mph 11.0 mph 46 % 0.00 in
17:15 58.7 °F 37.4 °F 30.10 in SW 9.0 mph 13.0 mph 45 % 0.00 in
17:20 58.3 °F 38.1 °F 30.09 in WSW 7.0 mph 10.0 mph 47 % 0.00 in
17:25 58.5 °F 37.8 °F 30.09 in West 6.0 mph 8.0 mph 46 % 0.00 in
17:30 59.1 °F 37.8 °F 30.09 in West 5.0 mph 10.0 mph 45 % 0.00 in
17:35 59.2 °F 37.9 °F 30.09 in West 3.0 mph 9.0 mph 45 % 0.00 in
17:40 59.3 °F 38.5 °F 30.09 in West 6.0 mph 13.0 mph 46 % 0.00 in
17:45 58.9 °F 37.6 °F 30.09 in West 5.0 mph 11.0 mph 45 % 0.00 in
20:37 54.5 °F 42.6 °F 30.12 in SW 9.2 mph 9.2 mph 64 % 0.00 in
20:44 54.3 °F 42.8 °F 30.12 in SW 4.0 mph 2.8 mph 65 % 0.00 in
20:49 54.2 °F 42.7 °F 30.12 in SW 4.0 mph 2.3 mph 65 % 0.00 in
20:54 54.1 °F 42.6 °F 30.12 in SW 3.5 mph 2.7 mph 65 % 0.00 in
20:59 54.0 °F 42.5 °F 30.12 in SW 3.5 mph 2.9 mph 65 % 0.00 in
21:04 53.8 °F 42.7 °F 30.12 in North 3.5 mph 1.7 mph 66 % 0.00 in
21:09 53.6 °F 42.5 °F 30.12 in SW 3.5 mph 2.2 mph 66 % 0.00 in
21:14 53.4 °F 42.7 °F 30.12 in SW 3.5 mph 3.0 mph 67 % 0.00 in
21:19 53.2 °F 42.5 °F 30.12 in WSW 3.5 mph 2.0 mph 67 % 0.00 in
21:24 53.1 °F 42.8 °F 30.12 in SW 4.0 mph 2.5 mph 68 % 0.00 in
21:29 53.0 °F 42.7 °F 30.12 in North 3.5 mph 2.4 mph 68 % 0.00 in
21:34 52.9 °F 43.0 °F 30.12 in SW 4.0 mph 3.4 mph 69 % 0.00 in
21:39 53.0 °F 42.7 °F 30.13 in North 5.0 mph 4.1 mph 68 % 0.00 in
21:44 53.2 °F 42.9 °F 30.13 in SW 5.0 mph 3.6 mph 68 % 0.00 in
21:49 53.3 °F 43.0 °F 30.13 in SW 5.8 mph 4.1 mph 68 % 0.00 in
21:54 53.5 °F 43.2 °F 30.13 in SW 6.0 mph 3.6 mph 68 % 0.00 in
21:59 53.5 °F 43.2 °F 30.13 in SW 3.5 mph 3.2 mph 68 % 0.00 in
22:04 53.4 °F 43.1 °F 30.13 in SW 4.6 mph 2.6 mph 68 % 0.00 in
22:09 53.4 °F 43.1 °F 30.13 in SW 3.5 mph 2.5 mph 68 % 0.00 in
22:14 53.2 °F 43.3 °F 30.13 in SW 3.5 mph 2.2 mph 69 % 0.00 in
22:19 53.1 °F 43.2 °F 30.13 in SW 2.3 mph 2.0 mph 69 % 0.00 in
22:24 53.0 °F 43.1 °F 30.13 in WSW 3.5 mph 2.7 mph 69 % 0.00 in
22:29 52.9 °F 43.0 °F 30.13 in SW 3.5 mph 2.9 mph 69 % 0.00 in
22:34 52.8 °F 42.9 °F 30.13 in SW 4.6 mph 3.4 mph 69 % 0.00 in
22:39 52.7 °F 42.8 °F 30.13 in North 4.6 mph 2.9 mph 69 % 0.00 in
22:44 52.5 °F 42.6 °F 30.13 in WSW 4.6 mph 2.7 mph 69 % 0.00 in
22:49 52.3 °F 42.4 °F 30.13 in SW 3.5 mph 2.4 mph 69 % 0.00 in
22:54 52.2 °F 42.3 °F 30.13 in WSW 3.5 mph 1.9 mph 69 % 0.00 in
22:59 52.1 °F 42.2 °F 30.13 in SW 2.3 mph 0.7 mph 69 % 0.00 in
23:04 51.9 °F 42.0 °F 30.13 in Calm     69 % 0.00 in
23:09 51.7 °F 41.9 °F 30.13 in Calm     69 % 0.00 in
23:14 51.4 °F 41.9 °F 30.13 in Calm     70 % 0.00 in
23:19 51.0 °F 41.6 °F 30.13 in SW 2.3 mph 1.0 mph 70 % 0.00 in
23:24 50.7 °F 41.6 °F 30.13 in SW 2.3 mph 1.6 mph 71 % 0.00 in
23:29 50.4 °F 41.3 °F 30.13 in SW 3.5 mph 1.7 mph 71 % 0.00 in
23:34 50.2 °F 41.5 °F 30.13 in WSW 2.3 mph 0.2 mph 72 % 0.00 in
23:39 50.0 °F 41.3 °F 30.13 in Calm     72 % 0.00 in
23:44 49.8 °F 41.1 °F 30.13 in Calm     72 % 0.00 in
23:49 49.4 °F 41.1 °F 30.13 in Calm     73 % 0.00 in
23:54 49.0 °F 41.1 °F 30.13 in WSW 2.3 mph 1.7 mph 74 % 0.00 in
23:59 48.9 °F 41.3 °F 30.13 in WSW 3.0 mph 1.7 mph 75 % 0.00 in
Ararat Weather
Compliments of Weather Underground - 2.5 mb
Click here to send mail.


ABOUT

Live weather data from Ararat, Victoria, Australia, 3377
Data uploaded from Cumulus every 5 minutes to Weather Underground.
This site then downloads the raw data for formatting and display.
Metric and imperial data can be displayed. Graphs and historical data available.
Includes Sun and Moon times and rain image live from BOM.

Check out Ararat Weather on Facebook, Twitter and Google +

Help support ongoing costs by checking out the ads





Follow @AraratWeather